X  Zatvori METAR Podaci o vazduhoplovstvu        LYNI Nis Airport
Temperatura
72°F Temperatura
66°F Tačka Rose
83% Vlaga



Vetar
6 MPH
9 KM/H
3 M/S
5 KTS



110°
IJI
Trenutna situacija

Mostly Clear Pretežno Vedro
Vazdušni pritisak 1013 (hPa) - 29.92 (inHg)
Vidljivost 6 (Milja) - 10 (km)
Aerodrom
Aerodromski kod. LYNI

Lokacija: Nis Airport
Udaljenost: 14 (mi)

Metar:
METAR LYNI 232330Z 11005KT CAVOK 22/19 Q1014 NOSIG

Vreme: 24-07-2024 01:30 CEST